createdAt,value
2022-12-19T00:03:34.498Z,17.4677
2022-12-19T00:18:36.503Z,15.3741
2022-12-19T00:33:40.678Z,17.5575
2022-12-19T00:48:45.488Z,23.5548
2022-12-19T01:04:11.262Z,23.4285
2022-12-19T01:19:20.955Z,23.9324
2022-12-19T01:34:22.879Z,24.7093
2022-12-19T01:49:25.128Z,25.3135
2022-12-19T02:04:28.954Z,24.9693
2022-12-19T02:19:34.498Z,25.0182
2022-12-19T02:34:40.021Z,25.0535
2022-12-19T02:49:46.062Z,24.4431
2022-12-19T03:04:47.954Z,23.6922
2022-12-19T03:19:49.888Z,24.1305
2022-12-19T03:34:51.801Z,24.6251
2022-12-19T03:49:53.954Z,24.7421
2022-12-19T04:04:55.851Z,25.3432
2022-12-19T04:19:57.748Z,26.0068
2022-12-19T04:34:59.687Z,25.5871
2022-12-19T04:50:01.588Z,23.8581
2022-12-19T05:05:03.509Z,24.7681
2022-12-19T05:20:05.423Z,23.998
2022-12-19T05:35:07.331Z,25.4311
2022-12-19T05:50:10.308Z,22.6361
2022-12-19T06:05:12.266Z,22.0994
2022-12-19T06:20:14.165Z,19.5019
2022-12-19T06:35:16.108Z,25.3655
2022-12-19T06:50:18.112Z,24.3775
2022-12-19T07:05:20.036Z,25.0572
2022-12-19T07:20:21.951Z,25.4051
2022-12-19T07:35:23.852Z,25.0832
2022-12-19T07:50:25.747Z,24.583
2022-12-19T08:05:27.650Z,24.6641
2022-12-19T08:20:29.582Z,23.6953
2022-12-19T08:35:31.461Z,24.4233
2022-12-19T08:50:33.366Z,23.7535
2022-12-19T09:06:05.048Z,23.4353
2022-12-19T09:21:08.787Z,22.7234
2022-12-19T09:36:10.701Z,22.9314
2022-12-19T09:51:12.631Z,23.2335
2022-12-19T10:07:10.475Z,22.6225
2022-12-19T10:22:35.013Z,23.3047
2022-12-19T10:37:43.837Z,22.6807
2022-12-19T10:52:49.317Z,22.4956
2022-12-19T11:07:51.322Z,22.8466
2022-12-19T11:30:09.082Z,21.4426
2022-12-19T11:46:03.400Z,21.3448
2022-12-19T12:01:05.247Z,20.5289
2022-12-19T12:31:01.329Z,18.8618
2022-12-19T12:46:38.780Z,19.8362
2022-12-19T13:01:40.783Z,19.0234
2022-12-19T13:16:42.753Z,19.3063
2022-12-19T13:31:44.718Z,19.0661
2022-12-19T13:46:46.623Z,18.2174
2022-12-19T14:01:48.564Z,17.0282
2022-12-19T14:16:50.541Z,18.5851
2022-12-19T14:32:15.182Z,18.7083
2022-12-19T14:52:25.897Z,17.2752
2022-12-19T15:11:04.536Z,17.3984
2022-12-19T15:26:14.200Z,18.2663
2022-12-19T15:41:16.049Z,18.5034
2022-12-19T15:56:17.971Z,17.2783
2022-12-19T16:11:19.814Z,17.1124
2022-12-19T16:26:21.667Z,18.3084
2022-12-19T16:41:23.543Z,18.5585
2022-12-19T16:56:25.447Z,16.9985
2022-12-19T17:11:27.317Z,18.2044
2022-12-19T17:26:29.130Z,17.9512
2022-12-19T17:41:30.971Z,16.8914
2022-12-19T17:56:32.844Z,18.0224
2022-12-19T18:11:40.043Z,18.3833
2022-12-19T18:26:43.831Z,17.9902
2022-12-19T18:41:45.669Z,17.7661
2022-12-19T18:56:47.512Z,18.7733
2022-12-19T19:11:49.413Z,18.8971
2022-12-19T19:26:51.261Z,17.8701
2022-12-19T19:41:53.078Z,18.6402
2022-12-19T19:56:54.929Z,19.3843
2022-12-19T20:11:56.827Z,17.802
2022-12-19T20:26:58.694Z,18.829
2022-12-19T20:42:00.598Z,19.7291
2022-12-19T20:57:02.484Z,17.9574
2022-12-19T21:12:04.359Z,12.6175
2022-12-19T21:27:06.181Z,20.2064
2022-12-19T21:42:08.152Z,21.9131
2022-12-19T21:57:10.015Z,22.2678
2022-12-19T22:12:11.850Z,22.0239
2022-12-19T22:27:13.713Z,23.1908
2022-12-19T22:42:15.591Z,22.2195
2022-12-19T22:57:17.434Z,22.3879
2022-12-19T23:12:19.252Z,22.8107
2022-12-19T23:27:21.113Z,22.7847
2022-12-19T23:42:22.953Z,23.1716
2022-12-19T23:57:24.855Z,23.6167
